Weather at Molos Airfield

Public forecast

Using degrees Celsius for public forecast. Weather courtesy of forecast.io.

Closest aviation weather report (METAR) to Molos Airfield

Closest report is Nea Anchialos National Airport, 24.4 nm (45.2 km) NNE.

2024/07/20 22:50 (retrieved 11 minutes ago)

LGBL 202250Z 26005KT CAVOK 23/16 Q1008 BLU

Closest aviation forecast (TAF) to Molos Airfield

Closest forecast is Elefsis Air Base, 62.1 nm (115.1 km) SE.

2024/07/20 18:13 (retrieved 5 hours ago)

TAF LGEL 201700Z 2018/2118 35012KT CAVOK BECMG 2020/2022 VRB05KT BECMG 2107/2109 17010KT 9999 FEW030